sensor_id;sensor_type;location;lat;lon;timestamp;pressure;altitude;pressure_sealevel;temperature;humidity
54816;BME280;40715;55.752;37.884;2023-02-21T00:02:23;96691.56;;;24.20;28.54
54816;BME280;40715;55.752;37.884;2023-02-21T00:05:09;96687.88;;;24.21;28.64
54816;BME280;40715;55.752;37.884;2023-02-21T00:07:54;96692.22;;;24.22;28.62
54816;BME280;40715;55.752;37.884;2023-02-21T00:10:40;96685.19;;;24.21;28.73
54816;BME280;40715;55.752;37.884;2023-02-21T00:13:25;96691.38;;;24.21;28.35
54816;BME280;40715;55.752;37.884;2023-02-21T00:16:17;96681.00;;;24.18;28.78
54816;BME280;40715;55.752;37.884;2023-02-21T00:19:03;96684.56;;;24.19;28.63
54816;BME280;40715;55.752;37.884;2023-02-21T00:21:48;96681.22;;;24.17;28.46
54816;BME280;40715;55.752;37.884;2023-02-21T00:24:34;96671.44;;;24.09;28.94
54816;BME280;40715;55.752;37.884;2023-02-21T00:27:19;96672.72;;;24.13;29.15
54816;BME280;40715;55.752;37.884;2023-02-21T00:30:05;96675.59;;;24.11;29.18
54816;BME280;40715;55.752;37.884;2023-02-21T00:32:51;96683.00;;;24.09;29.40
54816;BME280;40715;55.752;37.884;2023-02-21T00:35:37;96666.78;;;24.03;29.47
54816;BME280;40715;55.752;37.884;2023-02-21T00:38:22;96675.31;;;24.06;29.51
54816;BME280;40715;55.752;37.884;2023-02-21T00:41:08;96675.06;;;24.01;29.58
54816;BME280;40715;55.752;37.884;2023-02-21T00:43:53;96682.31;;;24.01;29.61
54816;BME280;40715;55.752;37.884;2023-02-21T00:46:38;96673.75;;;23.97;29.79
54816;BME280;40715;55.752;37.884;2023-02-21T00:49:24;96667.13;;;23.93;29.27
54816;BME280;40715;55.752;37.884;2023-02-21T00:52:09;96664.44;;;23.93;29.08
54816;BME280;40715;55.752;37.884;2023-02-21T00:54:55;96658.59;;;23.89;29.61
54816;BME280;40715;55.752;37.884;2023-02-21T00:57:41;96655.28;;;23.87;29.17
54816;BME280;40715;55.752;37.884;2023-02-21T01:00:26;96652.94;;;23.84;29.32
54816;BME280;40715;55.752;37.884;2023-02-21T01:03:11;96647.94;;;23.81;29.22
54816;BME280;40715;55.752;37.884;2023-02-21T01:05:57;96646.28;;;23.80;29.58
54816;BME280;40715;55.752;37.884;2023-02-21T01:08:44;96638.78;;;23.75;29.82
54816;BME280;40715;55.752;37.884;2023-02-21T01:11:30;96628.03;;;23.75;29.12
54816;BME280;40715;55.752;37.884;2023-02-21T01:14:15;96634.06;;;23.77;29.07
54816;BME280;40715;55.752;37.884;2023-02-21T01:17:01;96619.78;;;23.77;29.16
54816;BME280;40715;55.752;37.884;2023-02-21T01:19:47;96618.84;;;23.85;28.87
54816;BME280;40715;55.752;37.884;2023-02-21T01:22:32;96623.66;;;23.89;28.66
54816;BME280;40715;55.752;37.884;2023-02-21T01:25:18;96617.69;;;23.94;28.89
54816;BME280;40715;55.752;37.884;2023-02-21T01:28:04;96621.47;;;24.00;28.88
54816;BME280;40715;55.752;37.884;2023-02-21T01:30:49;96618.03;;;24.06;29.30
54816;BME280;40715;55.752;37.884;2023-02-21T01:33:37;96618.47;;;24.09;29.24
54816;BME280;40715;55.752;37.884;2023-02-21T01:36:23;96620.75;;;24.12;28.78
54816;BME280;40715;55.752;37.884;2023-02-21T01:39:09;96610.66;;;24.15;28.42
54816;BME280;40715;55.752;37.884;2023-02-21T01:41:55;96615.84;;;24.16;28.74
54816;BME280;40715;55.752;37.884;2023-02-21T01:44:43;96609.44;;;24.17;28.49
54816;BME280;40715;55.752;37.884;2023-02-21T01:47:31;96615.84;;;24.16;28.43
54816;BME280;40715;55.752;37.884;2023-02-21T01:50:27;96620.00;;;24.19;28.42
54816;BME280;40715;55.752;37.884;2023-02-21T01:53:19;96615.19;;;24.14;28.84
54816;BME280;40715;55.752;37.884;2023-02-21T01:56:06;96622.63;;;24.12;28.67
54816;BME280;40715;55.752;37.884;2023-02-21T01:58:58;96615.97;;;24.08;28.80
54816;BME280;40715;55.752;37.884;2023-02-21T02:01:50;96626.09;;;24.06;29.23
54816;BME280;40715;55.752;37.884;2023-02-21T02:04:37;96620.44;;;24.01;28.54
54816;BME280;40715;55.752;37.884;2023-02-21T02:07:23;96622.31;;;24.00;28.74
54816;BME280;40715;55.752;37.884;2023-02-21T02:10:09;96621.84;;;23.97;28.55
54816;BME280;40715;55.752;37.884;2023-02-21T02:13:30;96627.13;;;24.05;28.84
54816;BME280;40715;55.752;37.884;2023-02-21T02:21:57;96619.22;;;23.82;29.03
54816;BME280;40715;55.752;37.884;2023-02-21T02:24:45;96620.44;;;23.79;29.04
54816;BME280;40715;55.752;37.884;2023-02-21T02:35:10;96618.44;;;23.66;28.80
54816;BME280;40715;55.752;37.884;2023-02-21T02:37:53;96620.28;;;23.66;28.98
54816;BME280;40715;55.752;37.884;2023-02-21T02:40:56;96620.84;;;23.61;29.41
54816;BME280;40715;55.752;37.884;2023-02-21T02:43:25;96617.34;;;23.60;29.21
54816;BME280;40715;55.752;37.884;2023-02-21T02:46:16;96605.19;;;23.65;29.35
54816;BME280;40715;55.752;37.884;2023-02-21T02:48:57;96614.38;;;23.55;29.10
54816;BME280;40715;55.752;37.884;2023-02-21T02:51:27;96609.66;;;23.57;29.33
54816;BME280;40715;55.752;37.884;2023-02-21T02:53:54;96601.78;;;23.56;29.74
54816;BME280;40715;55.752;37.884;2023-02-21T02:56:22;96610.75;;;23.63;29.75
54816;BME280;40715;55.752;37.884;2023-02-21T02:59:06;96593.75;;;23.77;29.97
54816;BME280;40715;55.752;37.884;2023-02-21T03:02:04;96605.66;;;23.90;29.52
54816;BME280;40715;55.752;37.884;2023-02-21T03:10:16;96598.84;;;24.16;30.05
54816;BME280;40715;55.752;37.884;2023-02-21T03:12:53;96600.03;;;24.06;29.21
54816;BME280;40715;55.752;37.884;2023-02-21T03:15:29;96600.47;;;24.10;29.87
54816;BME280;40715;55.752;37.884;2023-02-21T03:18:21;96602.59;;;24.15;29.34
54816;BME280;40715;55.752;37.884;2023-02-21T03:20:51;96603.66;;;24.20;29.62
54816;BME280;40715;55.752;37.884;2023-02-21T03:23:21;96601.72;;;24.14;29.38
54816;BME280;40715;55.752;37.884;2023-02-21T03:25:50;96600.09;;;24.13;29.66
54816;BME280;40715;55.752;37.884;2023-02-21T03:28:19;96601.72;;;24.14;29.16
54816;BME280;40715;55.752;37.884;2023-02-21T03:30:48;96604.41;;;24.14;29.05
54816;BME280;40715;55.752;37.884;2023-02-21T03:33:17;96602.78;;;24.13;29.35
54816;BME280;40715;55.752;37.884;2023-02-21T03:35:44;96601.09;;;24.12;29.22
54816;BME280;40715;55.752;37.884;2023-02-21T03:38:11;96603.16;;;24.10;28.92
54816;BME280;40715;55.752;37.884;2023-02-21T03:40:38;96602.53;;;24.08;29.50
54816;BME280;40715;55.752;37.884;2023-02-21T03:43:05;96601.91;;;24.06;29.89
54816;BME280;40715;55.752;37.884;2023-02-21T03:45:33;96601.25;;;24.04;29.96
54816;BME280;40715;55.752;37.884;2023-02-21T03:48:01;96597.06;;;24.01;29.70
54816;BME280;40715;55.752;37.884;2023-02-21T03:50:28;96592.28;;;23.97;29.51
54816;BME280;40715;55.752;37.884;2023-02-21T03:52:55;96597.66;;;23.97;29.83
54816;BME280;40715;55.752;37.884;2023-02-21T03:55:22;96595.16;;;23.95;29.94
54816;BME280;40715;55.752;37.884;2023-02-21T03:57:49;96591.00;;;23.92;29.43
54816;BME280;40715;55.752;37.884;2023-02-21T04:00:16;96606.69;;;23.89;29.45
54816;BME280;40715;55.752;37.884;2023-02-21T04:02:43;96600.84;;;23.85;29.48
54816;BME280;40715;55.752;37.884;2023-02-21T04:05:10;96587.97;;;23.81;28.89
54816;BME280;40715;55.752;37.884;2023-02-21T04:07:37;96588.56;;;23.76;28.65
54816;BME280;40715;55.752;37.884;2023-02-21T04:10:05;96588.09;;;23.72;29.57
54816;BME280;40715;55.752;37.884;2023-02-21T04:12:32;96590.16;;;23.70;29.15
54816;BME280;40715;55.752;37.884;2023-02-21T04:14:59;96597.75;;;23.67;29.54
54816;BME280;40715;55.752;37.884;2023-02-21T04:17:26;96594.44;;;23.65;28.72
54816;BME280;40715;55.752;37.884;2023-02-21T04:19:53;96594.84;;;23.61;28.89
54816;BME280;40715;55.752;37.884;2023-02-21T04:22:20;96597.25;;;23.56;28.88
54816;BME280;40715;55.752;37.884;2023-02-21T04:24:48;96593.06;;;23.54;28.90
54816;BME280;40715;55.752;37.884;2023-02-21T04:27:16;96594.03;;;23.46;28.67
54816;BME280;40715;55.752;37.884;2023-02-21T04:29:44;96601.06;;;23.47;28.55
54816;BME280;40715;55.752;37.884;2023-02-21T04:32:11;96602.28;;;23.44;28.79
54816;BME280;40715;55.752;37.884;2023-02-21T04:34:38;96604.13;;;23.44;28.70
54816;BME280;40715;55.752;37.884;2023-02-21T04:37:05;96608.28;;;23.47;28.60
54816;BME280;40715;55.752;37.884;2023-02-21T04:39:32;96601.53;;;23.51;28.50
54816;BME280;40715;55.752;37.884;2023-02-21T04:41:59;96604.59;;;23.48;28.92
54816;BME280;40715;55.752;37.884;2023-02-21T04:44:26;96602.16;;;23.53;28.33
54816;BME280;40715;55.752;37.884;2023-02-21T04:46:52;96609.47;;;23.59;27.99
54816;BME280;40715;55.752;37.884;2023-02-21T04:49:19;96599.34;;;23.61;28.83
54816;BME280;40715;55.752;37.884;2023-02-21T04:51:46;96601.28;;;23.67;28.60
54816;BME280;40715;55.752;37.884;2023-02-21T04:54:13;96610.44;;;23.73;28.32
54816;BME280;40715;55.752;37.884;2023-02-21T04:56:40;96616.25;;;23.76;28.05
54816;BME280;40715;55.752;37.884;2023-02-21T04:59:07;96612.38;;;23.79;28.46
54816;BME280;40715;55.752;37.884;2023-02-21T05:01:34;96617.94;;;23.77;28.26
54816;BME280;40715;55.752;37.884;2023-02-21T05:04:01;96612.16;;;23.81;28.00
54816;BME280;40715;55.752;37.884;2023-02-21T05:06:29;96623.03;;;23.87;28.14
54816;BME280;40715;55.752;37.884;2023-02-21T05:08:57;96614.97;;;23.87;28.34
54816;BME280;40715;55.752;37.884;2023-02-21T05:11:24;96607.72;;;23.88;28.50
54816;BME280;40715;55.752;37.884;2023-02-21T05:13:52;96608.34;;;23.90;28.44
54816;BME280;40715;55.752;37.884;2023-02-21T05:16:19;96608.72;;;23.87;28.63
54816;BME280;40715;55.752;37.884;2023-02-21T05:18:47;96608.91;;;23.85;28.24
54816;BME280;40715;55.752;37.884;2023-02-21T05:21:18;96609.91;;;23.84;28.11
54816;BME280;40715;55.752;37.884;2023-02-21T05:23:46;96609.28;;;23.82;28.09
54816;BME280;40715;55.752;37.884;2023-02-21T05:26:34;96612.91;;;23.89;27.31
54816;BME280;40715;55.752;37.884;2023-02-21T05:29:02;96602.81;;;23.76;28.09
54816;BME280;40715;55.752;37.884;2023-02-21T05:31:30;96617.09;;;23.77;27.79
54816;BME280;40715;55.752;37.884;2023-02-21T05:33:57;96618.31;;;23.74;27.61
54816;BME280;40715;55.752;37.884;2023-02-21T05:36:24;96613.97;;;23.73;28.41
54816;BME280;40715;55.752;37.884;2023-02-21T05:38:53;96621.63;;;23.76;27.65
54816;BME280;40715;55.752;37.884;2023-02-21T05:41:22;96621.63;;;23.76;27.72
54816;BME280;40715;55.752;37.884;2023-02-21T05:43:49;96612.75;;;23.76;27.97
54816;BME280;40715;55.752;37.884;2023-02-21T05:46:18;96614.41;;;23.77;28.00
54816;BME280;40715;55.752;37.884;2023-02-21T05:48:46;96621.25;;;23.79;28.24
54816;BME280;40715;55.752;37.884;2023-02-21T05:51:14;96622.25;;;23.78;28.08
54816;BME280;40715;55.752;37.884;2023-02-21T05:53:42;96618.13;;;23.76;28.00
54816;BME280;40715;55.752;37.884;2023-02-21T05:56:09;96618.94;;;23.76;28.81
54816;BME280;40715;55.752;37.884;2023-02-21T05:58:36;96616.06;;;23.78;28.73
54816;BME280;40715;55.752;37.884;2023-02-21T06:01:04;96622.72;;;23.82;28.85
54816;BME280;40715;55.752;37.884;2023-02-21T06:03:31;96617.47;;;23.89;29.32
54816;BME280;40715;55.752;37.884;2023-02-21T06:05:59;96617.25;;;23.90;29.15
54816;BME280;40715;55.752;37.884;2023-02-21T06:08:28;96612.50;;;23.92;29.08
54816;BME280;40715;55.752;37.884;2023-02-21T06:10:55;96629.72;;;23.98;29.07
54816;BME280;40715;55.752;37.884;2023-02-21T06:13:23;96627.94;;;24.05;29.23
54816;BME280;40715;55.752;37.884;2023-02-21T06:15:50;96623.91;;;24.16;29.08
54816;BME280;40715;55.752;37.884;2023-02-21T06:18:17;96625.06;;;24.28;28.79
54816;BME280;40715;55.752;37.884;2023-02-21T06:20:44;96620.59;;;24.42;28.88
54816;BME280;40715;55.752;37.884;2023-02-21T06:23:11;96620.75;;;24.62;28.78
54816;BME280;40715;55.752;37.884;2023-02-21T06:25:38;96624.81;;;24.80;28.87
54816;BME280;40715;55.752;37.884;2023-02-21T06:28:04;96631.34;;;24.99;28.31
54816;BME280;40715;55.752;37.884;2023-02-21T06:30:31;96626.66;;;25.14;28.36
54816;BME280;40715;55.752;37.884;2023-02-21T06:32:58;96622.97;;;25.29;28.17
54816;BME280;40715;55.752;37.884;2023-02-21T06:35:25;96622.69;;;25.45;27.70
54816;BME280;40715;55.752;37.884;2023-02-21T06:37:52;96626.22;;;25.59;27.92
54816;BME280;40715;55.752;37.884;2023-02-21T06:40:19;96625.41;;;25.72;27.80
54816;BME280;40715;55.752;37.884;2023-02-21T06:42:46;96625.47;;;25.86;27.68
54816;BME280;40715;55.752;37.884;2023-02-21T06:45:13;96631.69;;;25.99;27.69
54816;BME280;40715;55.752;37.884;2023-02-21T06:47:40;96630.50;;;26.15;27.42
54816;BME280;40715;55.752;37.884;2023-02-21T06:50:07;96627.00;;;26.28;27.07
54816;BME280;40715;55.752;37.884;2023-02-21T06:52:36;96623.66;;;26.46;27.20
54816;BME280;40715;55.752;37.884;2023-02-21T06:55:03;96628.84;;;26.61;26.98
54816;BME280;40715;55.752;37.884;2023-02-21T06:57:31;96635.09;;;26.75;26.94
54816;BME280;40715;55.752;37.884;2023-02-21T06:59:57;96634.44;;;26.86;26.84
54816;BME280;40715;55.752;37.884;2023-02-21T07:02:24;96631.69;;;27.00;26.79
54816;BME280;40715;55.752;37.884;2023-02-21T07:04:51;96626.88;;;27.15;26.62
54816;BME280;40715;55.752;37.884;2023-02-21T07:07:18;96628.06;;;27.33;26.40
54816;BME280;40715;55.752;37.884;2023-02-21T07:09:46;96629.69;;;27.47;26.39
54816;BME280;40715;55.752;37.884;2023-02-21T07:12:13;96643.16;;;27.61;26.14
54816;BME280;40715;55.752;37.884;2023-02-21T07:14:40;96643.28;;;27.72;25.96
54816;BME280;40715;55.752;37.884;2023-02-21T07:17:06;96619.13;;;27.78;25.51
54816;BME280;40715;55.752;37.884;2023-02-21T07:19:33;96648.59;;;27.99;25.73
54816;BME280;40715;55.752;37.884;2023-02-21T07:22:01;96641.41;;;28.12;25.48
54816;BME280;40715;55.752;37.884;2023-02-21T07:24:28;96644.88;;;28.19;25.24
54816;BME280;40715;55.752;37.884;2023-02-21T07:26:55;96641.91;;;28.27;25.19
54816;BME280;40715;55.752;37.884;2023-02-21T07:29:23;96649.78;;;28.35;25.00
54816;BME280;40715;55.752;37.884;2023-02-21T07:31:50;96638.69;;;28.44;25.03
54816;BME280;40715;55.752;37.884;2023-02-21T07:34:17;96645.00;;;28.56;24.85
54816;BME280;40715;55.752;37.884;2023-02-21T07:36:45;96648.50;;;28.63;24.81
54816;BME280;40715;55.752;37.884;2023-02-21T07:39:12;96658.25;;;28.71;24.83
54816;BME280;40715;55.752;37.884;2023-02-21T07:41:39;96651.94;;;28.77;24.53
54816;BME280;40715;55.752;37.884;2023-02-21T07:44:06;96651.88;;;28.84;24.65
54816;BME280;40715;55.752;37.884;2023-02-21T07:46:33;96655.75;;;28.95;24.55
54816;BME280;40715;55.752;37.884;2023-02-21T07:49:00;96652.50;;;29.04;24.21
54816;BME280;40715;55.752;37.884;2023-02-21T07:51:29;96649.44;;;29.19;23.80
54816;BME280;40715;55.752;37.884;2023-02-21T07:53:56;96658.50;;;29.32;23.55
54816;BME280;40715;55.752;37.884;2023-02-21T07:56:23;96650.66;;;29.42;23.80
54816;BME280;40715;55.752;37.884;2023-02-21T07:58:50;96652.59;;;29.53;23.28
54816;BME280;40715;55.752;37.884;2023-02-21T08:01:17;96662.81;;;29.70;23.44
54816;BME280;40715;55.752;37.884;2023-02-21T08:03:47;96663.94;;;29.81;22.90
54816;BME280;40715;55.752;37.884;2023-02-21T08:06:14;96660.09;;;29.88;23.08
54816;BME280;40715;55.752;37.884;2023-02-21T08:08:42;96658.50;;;29.99;23.53
54816;BME280;40715;55.752;37.884;2023-02-21T08:11:09;96656.13;;;30.03;24.31
54816;BME280;40715;55.752;37.884;2023-02-21T08:13:36;96662.91;;;30.12;24.68
54816;BME280;40715;55.752;37.884;2023-02-21T08:16:04;96662.19;;;30.17;25.21
54816;BME280;40715;55.752;37.884;2023-02-21T08:18:31;96663.97;;;30.23;25.34
54816;BME280;40715;55.752;37.884;2023-02-21T08:20:58;96665.16;;;30.27;25.52
54816;BME280;40715;55.752;37.884;2023-02-21T08:23:27;96661.16;;;30.29;25.56
54816;BME280;40715;55.752;37.884;2023-02-21T08:25:55;96666.97;;;30.33;25.64
54816;BME280;40715;55.752;37.884;2023-02-21T08:28:22;96663.53;;;30.38;25.31
54816;BME280;40715;55.752;37.884;2023-02-21T08:30:48;96671.22;;;30.41;25.32
54816;BME280;40715;55.752;37.884;2023-02-21T08:33:15;96667.38;;;30.49;24.94
54816;BME280;40715;55.752;37.884;2023-02-21T08:35:42;96663.81;;;30.48;24.38
54816;BME280;40715;55.752;37.884;2023-02-21T08:38:09;96680.03;;;30.55;24.15
54816;BME280;40715;55.752;37.884;2023-02-21T08:40:36;96672.22;;;30.58;24.15
54816;BME280;40715;55.752;37.884;2023-02-21T08:43:03;96678.84;;;30.62;24.09
54816;BME280;40715;55.752;37.884;2023-02-21T08:45:31;96681.91;;;30.66;23.99
54816;BME280;40715;55.752;37.884;2023-02-21T08:47:58;96673.78;;;30.66;24.03
54816;BME280;40715;55.752;37.884;2023-02-21T08:50:26;96670.00;;;30.67;23.60
54816;BME280;40715;55.752;37.884;2023-02-21T08:52:54;96673.53;;;30.68;24.00
54816;BME280;40715;55.752;37.884;2023-02-21T08:55:22;96667.28;;;30.67;23.81
54816;BME280;40715;55.752;37.884;2023-02-21T08:57:51;96678.00;;;30.62;24.05
54816;BME280;40715;55.752;37.884;2023-02-21T09:00:20;96666.53;;;30.48;23.82
54816;BME280;40715;55.752;37.884;2023-02-21T09:02:51;96668.00;;;30.32;24.19
54816;BME280;40715;55.752;37.884;2023-02-21T09:05:21;96668.81;;;30.21;24.03
54816;BME280;40715;55.752;37.884;2023-02-21T09:07:50;96668.56;;;30.10;23.97
54816;BME280;40715;55.752;37.884;2023-02-21T09:10:20;96671.00;;;30.00;23.88
54816;BME280;40715;55.752;37.884;2023-02-21T09:12:47;96683.22;;;29.91;23.83
54816;BME280;40715;55.752;37.884;2023-02-21T09:15:15;96675.25;;;29.77;24.09
54816;BME280;40715;55.752;37.884;2023-02-21T09:17:43;96679.72;;;29.72;23.58
54816;BME280;40715;55.752;37.884;2023-02-21T09:20:14;96681.91;;;29.63;23.94
54816;BME280;40715;55.752;37.884;2023-02-21T09:22:43;96681.75;;;29.58;23.59
54816;BME280;40715;55.752;37.884;2023-02-21T09:25:15;96676.84;;;29.48;23.41
54816;BME280;40715;55.752;37.884;2023-02-21T09:27:42;96682.13;;;29.43;23.48
54816;BME280;40715;55.752;37.884;2023-02-21T09:30:13;96678.06;;;29.34;23.75
54816;BME280;40715;55.752;37.884;2023-02-21T09:32:41;96674.16;;;29.30;23.65
54816;BME280;40715;55.752;37.884;2023-02-21T09:35:09;96676.06;;;29.22;23.73
54816;BME280;40715;55.752;37.884;2023-02-21T09:37:40;96669.22;;;29.20;23.44
54816;BME280;40715;55.752;37.884;2023-02-21T09:40:26;96673.59;;;29.21;23.85
54816;BME280;40715;55.752;37.884;2023-02-21T09:42:57;96675.72;;;29.19;23.72
54816;BME280;40715;55.752;37.884;2023-02-21T09:45:31;96674.72;;;29.13;23.82
54816;BME280;40715;55.752;37.884;2023-02-21T09:48:03;96672.09;;;29.06;24.00
54816;BME280;40715;55.752;37.884;2023-02-21T09:50:36;96666.34;;;28.96;23.94
54816;BME280;40715;55.752;37.884;2023-02-21T09:53:07;96663.66;;;28.96;24.03
54816;BME280;40715;55.752;37.884;2023-02-21T09:55:38;96663.09;;;28.87;24.36
54816;BME280;40715;55.752;37.884;2023-02-21T09:58:13;96667.09;;;28.85;24.15
54816;BME280;40715;55.752;37.884;2023-02-21T10:00:40;96666.09;;;28.79;24.18
54816;BME280;40715;55.752;37.884;2023-02-21T10:06:49;96670.59;;;28.67;24.35
54816;BME280;40715;55.752;37.884;2023-02-21T10:09:00;96670.81;;;28.58;24.33
54816;BME280;40715;55.752;37.884;2023-02-21T10:16:52;96665.63;;;28.32;24.06
54816;BME280;40715;55.752;37.884;2023-02-21T10:19:33;96663.84;;;28.19;23.68
54816;BME280;40715;55.752;37.884;2023-02-21T10:22:09;96673.72;;;28.06;24.42
54816;BME280;40715;55.752;37.884;2023-02-21T10:24:38;96675.63;;;27.99;24.36
54816;BME280;40715;55.752;37.884;2023-02-21T10:27:07;96673.59;;;27.88;24.60
54816;BME280;40715;55.752;37.884;2023-02-21T10:32:21;96683.44;;;27.76;24.18
54816;BME280;40715;55.752;37.884;2023-02-21T10:34:51;96681.00;;;27.61;23.68
54816;BME280;40715;55.752;37.884;2023-02-21T10:37:39;96693.47;;;27.62;23.95
54816;BME280;40715;55.752;37.884;2023-02-21T10:43:00;96691.72;;;27.35;24.03
54816;BME280;40715;55.752;37.884;2023-02-21T10:45:39;96700.00;;;27.27;24.26
54816;BME280;40715;55.752;37.884;2023-02-21T10:48:12;96701.69;;;27.15;24.19
54816;BME280;40715;55.752;37.884;2023-02-21T10:50:50;96704.81;;;27.12;24.64
54816;BME280;40715;55.752;37.884;2023-02-21T10:53:52;96708.94;;;27.28;24.40
54816;BME280;40715;55.752;37.884;2023-02-21T10:56:22;96707.56;;;26.98;24.59
54816;BME280;40715;55.752;37.884;2023-02-21T10:59:02;96708.38;;;26.99;24.75
54816;BME280;40715;55.752;37.884;2023-02-21T11:01:41;96702.75;;;27.00;24.79
54816;BME280;40715;55.752;37.884;2023-02-21T11:06:51;96714.38;;;27.08;24.35
54816;BME280;40715;55.752;37.884;2023-02-21T11:09:30;96719.69;;;27.68;23.90
54816;BME280;40715;55.752;37.884;2023-02-21T11:14:35;96716.69;;;26.97;24.56
54816;BME280;40715;55.752;37.884;2023-02-21T11:19:42;96720.03;;;26.93;24.06
54816;BME280;40715;55.752;37.884;2023-02-21T11:22:09;96707.56;;;26.85;23.88
54816;BME280;40715;55.752;37.884;2023-02-21T11:25:03;96716.69;;;26.97;23.81
54816;BME280;40715;55.752;37.884;2023-02-21T11:27:34;96717.75;;;26.83;23.82
54816;BME280;40715;55.752;37.884;2023-02-21T11:30:12;96717.97;;;26.81;23.83
54816;BME280;40715;55.752;37.884;2023-02-21T11:32:42;96713.78;;;26.72;23.92
54816;BME280;40715;55.752;37.884;2023-02-21T11:38:33;96728.13;;;26.79;24.04
54816;BME280;40715;55.752;37.884;2023-02-21T11:41:27;96729.59;;;26.75;23.88
54816;BME280;40715;55.752;37.884;2023-02-21T11:43:56;96736.81;;;26.55;23.94
54816;BME280;40715;55.752;37.884;2023-02-21T11:46:43;96744.28;;;26.59;23.85
54816;BME280;40715;55.752;37.884;2023-02-21T11:54:09;96740.13;;;26.30;23.53
54816;BME280;40715;55.752;37.884;2023-02-21T11:57:01;96741.78;;;26.31;23.86
54816;BME280;40715;55.752;37.884;2023-02-21T12:13:53;96755.97;;;25.98;24.03
54816;BME280;40715;55.752;37.884;2023-02-21T12:25:28;96765.00;;;25.70;23.93
54816;BME280;40715;55.752;37.884;2023-02-21T12:28:23;96766.69;;;25.71;23.75
54816;BME280;40715;55.752;37.884;2023-02-21T12:45:22;96798.00;;;26.14;23.19
54816;BME280;40715;55.752;37.884;2023-02-21T12:48:02;96798.78;;;26.08;23.07
54816;BME280;40715;55.752;37.884;2023-02-21T12:50:38;96812.06;;;26.09;23.03
54816;BME280;40715;55.752;37.884;2023-02-21T12:53:14;96810.41;;;26.01;23.23
54816;BME280;40715;55.752;37.884;2023-02-21T12:55:58;96803.97;;;26.03;23.02
54816;BME280;40715;55.752;37.884;2023-02-21T12:59:26;96806.88;;;26.08;22.87
54816;BME280;40715;55.752;37.884;2023-02-21T13:01:35;96815.31;;;25.98;22.57
54816;BME280;40715;55.752;37.884;2023-02-21T13:06:54;96814.25;;;25.92;22.68
54816;BME280;40715;55.752;37.884;2023-02-21T13:09:38;96824.66;;;25.95;22.81
54816;BME280;40715;55.752;37.884;2023-02-21T13:12:08;96836.84;;;25.84;22.88
54816;BME280;40715;55.752;37.884;2023-02-21T13:15:32;96830.28;;;25.94;22.94
54816;BME280;40715;55.752;37.884;2023-02-21T13:18:18;96837.09;;;25.90;22.89
54816;BME280;40715;55.752;37.884;2023-02-21T13:20:55;96841.97;;;25.73;23.09
54816;BME280;40715;55.752;37.884;2023-02-21T13:23:44;96845.75;;;25.78;23.00
54816;BME280;40715;55.752;37.884;2023-02-21T13:29:37;96851.78;;;25.52;22.90
54816;BME280;40715;55.752;37.884;2023-02-21T13:32:14;96832.44;;;25.42;22.81
54816;BME280;40715;55.752;37.884;2023-02-21T13:35:00;96860.94;;;25.51;23.15
54816;BME280;40715;55.752;37.884;2023-02-21T13:37:31;96863.09;;;25.41;22.89
54816;BME280;40715;55.752;37.884;2023-02-21T13:43:09;96864.09;;;25.33;23.26
54816;BME280;40715;55.752;37.884;2023-02-21T13:45:39;96865.69;;;25.27;23.00
54816;BME280;40715;55.752;37.884;2023-02-21T13:56:42;96882.19;;;25.18;23.40
54816;BME280;40715;55.752;37.884;2023-02-21T14:02:16;96895.66;;;25.18;23.24
54816;BME280;40715;55.752;37.884;2023-02-21T14:07:42;96903.97;;;25.01;23.37
54816;BME280;40715;55.752;37.884;2023-02-21T14:10:32;96912.66;;;24.96;23.09
54816;BME280;40715;55.752;37.884;2023-02-21T14:13:07;96917.41;;;24.94;23.31
54816;BME280;40715;55.752;37.884;2023-02-21T14:15:46;96921.75;;;24.95;22.51
54816;BME280;40715;55.752;37.884;2023-02-21T14:18:18;96927.59;;;24.99;22.73
54816;BME280;40715;55.752;37.884;2023-02-21T14:20:48;96940.09;;;25.07;23.11
54816;BME280;40715;55.752;37.884;2023-02-21T14:23:18;96937.84;;;25.10;22.70
54816;BME280;40715;55.752;37.884;2023-02-21T14:25:58;96946.91;;;25.24;23.02
54816;BME280;40715;55.752;37.884;2023-02-21T14:34:12;96965.00;;;25.30;22.41
54816;BME280;40715;55.752;37.884;2023-02-21T14:36:40;96969.75;;;25.28;22.37
54816;BME280;40715;55.752;37.884;2023-02-21T14:39:08;96972.63;;;25.27;22.44
54816;BME280;40715;55.752;37.884;2023-02-21T14:41:51;96977.47;;;25.31;22.52
54816;BME280;40715;55.752;37.884;2023-02-21T14:53:30;97003.53;;;25.31;22.86
54816;BME280;40715;55.752;37.884;2023-02-21T14:59:25;97015.88;;;25.19;22.79
54816;BME280;40715;55.752;37.884;2023-02-21T15:04:40;97026.66;;;25.04;22.79
54816;BME280;40715;55.752;37.884;2023-02-21T15:07:20;97032.44;;;25.01;22.92
54816;BME280;40715;55.752;37.884;2023-02-21T15:10:14;97037.81;;;25.01;22.88
54816;BME280;40715;55.752;37.884;2023-02-21T15:13:02;97037.19;;;24.98;22.55
54816;BME280;40715;55.752;37.884;2023-02-21T15:15:39;97049.84;;;24.83;22.92
54816;BME280;40715;55.752;37.884;2023-02-21T15:18:33;97050.59;;;24.77;23.02
54816;BME280;40715;55.752;37.884;2023-02-21T15:23:42;97054.22;;;24.69;22.83
54816;BME280;40715;55.752;37.884;2023-02-21T15:26:24;97062.28;;;24.69;22.90
54816;BME280;40715;55.752;37.884;2023-02-21T15:34:22;97072.00;;;24.55;23.45
54816;BME280;40715;55.752;37.884;2023-02-21T15:39:33;97081.41;;;24.44;22.87
54816;BME280;40715;55.752;37.884;2023-02-21T15:42:06;97084.63;;;24.40;22.79
54816;BME280;40715;55.752;37.884;2023-02-21T15:44:43;97083.41;;;24.42;22.78
54816;BME280;40715;55.752;37.884;2023-02-21T15:47:17;97087.88;;;24.35;22.97
54816;BME280;40715;55.752;37.884;2023-02-21T15:57:45;97110.25;;;24.36;22.71